Time;durP1;ratioP1;P1;durP2;ratioP2;P2;SDS_P1;SDS_P2;PMS_P1;PMS_P2;Temp;Humidity;BMP_temperature;BMP_pressure;BME280_temperature;BME280_humidity;BME280_pressure;Samples;Min_cycle;Max_cycle;Signal;HPM_P1;HPM_P2
2022/09/01 00:01:14;;;;;;;5.53;2.02;;;;;;;17.47;54.91;100535.03;1682226;84;21042;-46
2022/09/01 00:03:39;;;;;;;4.67;2.00;;;;;;;17.45;54.27;100540.52;1678053;84;22595;-47
2022/09/01 00:06:09;;;;;;;6.10;1.70;;;;;;;17.42;54.50;100536.02;1679980;84;21298;-47
2022/09/01 00:08:35;;;;;;;4.15;1.40;;;;;;;17.39;54.36;100536.34;1679490;84;21041;-47
2022/09/01 00:11:02;;;;;;;6.78;1.37;;;;;;;17.38;54.54;100542.64;1680562;84;21014;-47
2022/09/01 00:13:32;;;;;;;4.20;1.65;;;;;;;17.36;54.34;100540.66;1679477;84;21581;-48
2022/09/01 00:16:02;;;;;;;3.67;1.57;;;;;;;17.34;54.09;100542.66;1672227;84;21131;-47
2022/09/01 00:18:31;;;;;;;4.72;1.57;;;;;;;17.34;54.14;100538.66;1672863;84;21262;-48
2022/09/01 00:20:58;;;;;;;4.55;1.60;;;;;;;17.32;54.00;100538.00;1673771;84;21174;-48
2022/09/01 00:23:26;;;;;;;4.90;1.65;;;;;;;17.33;53.97;100536.98;1671635;84;21086;-47
2022/09/01 00:25:53;;;;;;;5.15;1.70;;;;;;;17.32;53.99;100536.16;1674236;84;21057;-48
2022/09/01 00:28:20;;;;;;;4.42;1.60;;;;;;;17.35;54.33;100538.98;1671513;84;21179;-48
2022/09/01 00:30:47;;;;;;;3.90;1.40;;;;;;;17.36;54.07;100534.83;1670178;84;21783;-47
2022/09/01 00:33:13;;;;;;;4.60;1.40;;;;;;;17.38;53.86;100534.67;1670185;84;21081;-47
2022/09/01 00:35:40;;;;;;;4.92;1.40;;;;;;;17.40;52.92;100537.52;1670528;84;21135;-47
2022/09/01 00:38:07;;;;;;;6.78;1.57;;;;;;;17.41;52.96;100543.66;1669868;84;21121;-47
2022/09/01 00:40:33;;;;;;;5.15;1.65;;;;;;;17.40;52.51;100534.85;1640739;86;21112;-47
2022/09/01 00:43:01;;;;;;;4.50;1.40;;;;;;;17.42;52.27;100538.69;1622902;86;21352;-49
2022/09/01 00:45:29;;;;;;;5.10;1.60;;;;;;;17.43;52.38;100538.52;1671398;84;21092;-47
2022/09/01 00:47:56;;;;;;;5.10;1.40;;;;;;;17.45;52.32;100541.84;1671091;84;21595;-47
2022/09/01 00:50:24;;;;;;;5.60;1.85;;;;;;;17.46;51.98;100543.48;1644600;86;21169;-47
2022/09/01 00:52:52;;;;;;;4.33;1.62;;;;;;;17.49;51.94;100549.50;1672371;84;21061;-47
2022/09/01 00:55:26;;;;;;;4.97;1.42;;;;;;;17.48;51.70;100547.31;1671857;84;21593;-47
2022/09/01 00:57:52;;;;;;;4.40;1.32;;;;;;;17.48;51.70;100541.17;1672151;84;21079;-46
2022/09/01 01:00:23;;;;;;;4.40;1.37;;;;;;;17.48;51.61;100544.66;1645242;86;21076;-46
2022/09/01 01:02:56;;;;;;;5.15;1.40;;;;;;;17.47;51.39;100544.34;1669425;84;21468;-46
2022/09/01 01:05:29;;;;;;;4.45;1.90;;;;;;;17.49;51.57;100545.00;1672047;84;21080;-47
2022/09/01 01:07:57;;;;;;;4.97;1.62;;;;;;;17.48;51.23;100547.31;1662133;84;21192;-46
2022/09/01 01:10:25;;;;;;;4.22;1.37;;;;;;;17.49;51.16;100546.33;1645662;86;21484;-47
2022/09/01 01:12:52;;;;;;;5.12;1.20;;;;;;;17.48;51.11;100553.97;1671469;84;21124;-47
2022/09/01 01:15:19;;;;;;;3.62;1.42;;;;;;;17.48;50.84;100552.64;1672239;84;21085;-47
2022/09/01 01:17:46;;;;;;;5.90;1.30;;;;;;;17.48;50.61;100551.30;1670803;84;21057;-47
2022/09/01 01:23:39;;;;;;;4.10;1.72;;;;;;;17.45;50.43;100555.65;1671866;84;21065;-47
2022/09/01 01:26:08;;;;;;;4.53;1.50;;;;;;;17.44;50.45;100550.80;1672850;84;21041;-47
2022/09/01 01:28:38;;;;;;;3.52;1.32;;;;;;;17.43;50.58;100546.98;1662579;84;21629;-47
2022/09/01 01:31:12;;;;;;;4.70;1.20;;;;;;;17.43;50.33;100548.30;1661239;84;21194;-47
2022/09/01 01:33:43;;;;;;;4.42;1.55;;;;;;;17.42;49.98;100550.14;1663737;84;21545;-47
2022/09/01 01:36:31;;;;;;;4.95;1.45;;;;;;;17.41;49.29;100544.48;1674737;84;21037;-47
2022/09/01 01:38:54;;;;;;;7.65;2.20;;;;;;;17.42;49.88;100545.33;1673674;84;21132;-47
2022/09/01 01:41:23;;;;;;;4.95;1.70;;;;;;;17.40;50.31;100545.49;1671713;84;21112;-46
2022/09/01 01:43:49;;;;;;;9.90;1.92;;;;;;;17.40;50.86;100533.52;1671838;84;21130;-46
2022/09/01 01:46:17;;;;;;;4.83;1.50;;;;;;;17.39;50.43;100540.33;1674954;84;21228;-47
2022/09/01 01:48:44;;;;;;;4.92;1.15;;;;;;;17.38;50.02;100534.67;1672948;84;21061;-47
2022/09/01 01:51:12;;;;;;;3.75;1.40;;;;;;;17.36;50.12;100532.17;1674088;84;21026;-47
2022/09/01 01:53:39;;;;;;;6.62;1.60;;;;;;;17.38;49.72;100535.52;1673875;84;21084;-46
2022/09/01 01:56:07;;;;;;;5.42;1.35;;;;;;;17.37;50.53;100522.38;1673170;84;21076;-46
2022/09/01 01:58:35;;;;;;;6.60;1.50;;;;;;;17.35;50.62;100527.86;1672679;84;21242;-47
2022/09/01 02:01:10;;;;;;;4.80;1.62;;;;;;;17.35;50.68;100528.34;1676329;84;21116;-47
2022/09/01 02:03:37;;;;;;;3.45;1.27;;;;;;;17.34;50.87;100538.66;1673693;84;21097;-47
2022/09/01 02:06:08;;;;;;;4.53;1.50;;;;;;;17.32;50.76;100534.01;1673900;84;21118;-47
2022/09/01 02:08:36;;;;;;;2.70;1.10;;;;;;;17.32;50.60;100536.67;1682827;84;21551;-47
2022/09/01 02:11:03;;;;;;;3.60;1.42;;;;;;;17.31;50.54;100532.33;1675867;84;21512;-46
2022/09/01 02:13:30;;;;;;;4.17;1.30;;;;;;;17.28;50.65;100533.48;1671981;84;21662;-46
2022/09/01 02:16:01;;;;;;;3.90;1.35;;;;;;;17.27;50.34;100532.66;1675369;84;21519;-47
2022/09/01 02:18:35;;;;;;;4.35;1.15;;;;;;;17.23;50.34;100528.67;1671610;84;21137;-47
2022/09/01 02:21:09;;;;;;;4.60;1.60;;;;;;;17.21;50.23;100531.14;1670979;84;21079;-47
2022/09/01 02:23:38;;;;;;;2.80;1.07;;;;;;;17.17;50.62;100526.66;1671731;84;21097;-47
2022/09/01 02:26:05;;;;;;;5.10;1.05;;;;;;;17.14;50.23;100524.31;1671594;84;21078;-47
2022/09/01 02:28:35;;;;;;;4.97;1.10;;;;;;;17.11;50.45;100533.11;1674155;84;21535;-47
2022/09/01 02:31:03;;;;;;;3.22;1.25;;;;;;;17.06;50.67;100529.13;1681036;83;21022;-46
2022/09/01 02:33:30;;;;;;;4.42;1.40;;;;;;;17.02;51.05;100530.94;1685823;83;21073;-47
2022/09/01 02:36:00;;;;;;;3.62;1.20;;;;;;;16.99;50.97;100526.76;1684768;83;21218;-47
2022/09/01 02:38:28;;;;;;;3.35;1.10;;;;;;;16.96;51.23;100530.23;1684563;83;21041;-47
2022/09/01 02:40:57;;;;;;;4.72;1.32;;;;;;;16.94;51.54;100530.91;1685309;83;21095;-47
2022/09/01 02:43:27;;;;;;;4.40;1.50;;;;;;;16.92;51.47;100528.91;1687073;83;21024;-47
2022/09/01 02:45:56;;;;;;;3.10;1.07;;;;;;;16.86;51.73;100529.89;1685920;83;21088;-47
2022/09/01 02:48:36;;;;;;;5.15;1.60;;;;;;;16.82;51.98;100528.50;1670729;83;21095;-47
2022/09/01 02:51:04;;;;;;;4.22;1.80;;;;;;;16.77;53.57;100528.14;1686335;83;21044;-47
2022/09/01 02:55:58;;;;;;;3.75;1.67;;;;;;;16.68;55.38;100529.94;1857375;75;21979;-46
2022/09/01 02:58:28;;;;;;;3.83;1.70;;;;;;;16.61;55.95;100535.56;1831844;77;20920;-46
2022/09/01 03:00:55;;;;;;;8.83;1.95;;;;;;;16.58;56.44;100536.38;1786744;78;21700;-46
2022/09/01 03:03:23;;;;;;;4.80;1.70;;;;;;;16.52;56.45;100529.38;1778595;78;21087;-46
2022/09/01 03:05:54;;;;;;;6.35;2.00;;;;;;;16.43;56.21;100536.13;1765807;79;21074;-44
2022/09/01 03:08:19;;;;;;;5.90;1.70;;;;;;;16.32;56.04;100539.38;1772641;79;21043;-45
2022/09/01 03:10:46;;;;;;;4.12;1.72;;;;;;;16.28;55.96;100546.48;1768232;79;20997;-45
2022/09/01 03:13:16;;;;;;;6.92;2.02;;;;;;;16.24;55.80;100539.33;1777728;79;21132;-46
2022/09/01 03:15:43;;;;;;;5.28;2.42;;;;;;;16.24;55.97;100542.45;1773562;79;21084;-47
2022/09/01 03:18:11;;;;;;;4.55;2.00;;;;;;;16.24;56.27;100549.09;1768977;79;21055;-47
2022/09/01 03:22:00;;;;;;;5.92;2.22;;;;;;;16.30;56.59;100550.63;1795482;77;22690;-47
2022/09/01 03:24:29;;;;;;;5.33;1.82;;;;;;;16.28;56.68;100550.47;1764991;78;21529;-47
2022/09/01 03:26:56;;;;;;;6.53;2.60;;;;;;;16.23;56.95;100552.76;1768320;78;21217;-47
2022/09/01 03:29:23;;;;;;;6.05;2.67;;;;;;;16.18;57.13;100557.70;1771130;78;22422;-46
2022/09/01 03:31:50;;;;;;;4.87;2.00;;;;;;;16.12;57.39;100558.66;1762438;78;20999;-47
2022/09/01 03:34:19;;;;;;;5.62;2.05;;;;;;;16.15;57.58;100561.02;1770643;78;21567;-47
2022/09/01 03:36:49;;;;;;;5.08;1.92;;;;;;;16.27;57.52;100567.38;1768512;78;21529;-48
2022/09/01 03:39:17;;;;;;;5.20;2.22;;;;;;;16.32;57.35;100563.75;1766305;78;21237;-48
2022/09/01 03:41:44;;;;;;;4.55;2.20;;;;;;;16.35;57.20;100558.14;1707064;81;21089;-48
2022/09/01 03:44:13;;;;;;;4.47;2.37;;;;;;;16.34;57.08;100564.45;1735732;80;21090;-47
2022/09/01 03:46:41;;;;;;;5.70;2.67;;;;;;;16.33;56.86;100564.93;1730839;80;21142;-48
2022/09/01 03:49:11;;;;;;;6.00;2.62;;;;;;;16.32;56.81;100569.92;1717097;81;21138;-47
2022/09/01 03:51:37;;;;;;;5.62;2.50;;;;;;;16.35;56.42;100570.09;1714162;81;21272;-47
2022/09/01 03:54:05;;;;;;;5.30;2.30;;;;;;;16.40;56.16;100567.80;1715090;81;21077;-47
2022/09/01 03:56:32;;;;;;;6.55;2.70;;;;;;;16.42;55.99;100564.48;1718563;81;21052;-47
2022/09/01 03:59:00;;;;;;;6.60;3.17;;;;;;;16.44;55.83;100565.66;1736103;80;21118;-48
2022/09/01 04:01:28;;;;;;;5.12;2.90;;;;;;;16.45;55.77;100569.99;1735838;81;21011;-48
2022/09/01 04:03:55;;;;;;;6.40;3.12;;;;;;;16.44;55.45;100575.80;1713562;81;21762;-48
2022/09/01 04:06:24;;;;;;;5.20;2.72;;;;;;;16.43;55.33;100569.32;1714276;81;21197;-47
2022/09/01 04:09:01;;;;;;;7.08;3.08;;;;;;;16.40;55.21;100575.77;1729627;80;21082;-47
2022/09/01 04:11:24;;;;;;;6.72;2.58;;;;;;;16.41;55.31;100579.24;1717285;81;21043;-47
2022/09/01 04:13:51;;;;;;;5.67;2.90;;;;;;;16.40;55.40;100579.75;1730209;81;21082;-47
2022/09/01 04:19:29;;;;;;;5.00;2.75;;;;;;;16.34;55.95;100581.22;1706110;81;21051;-48
2022/09/01 04:21:37;;;;;;;6.17;2.77;;;;;;;16.33;56.03;100591.98;1693471;82;21672;-47
2022/09/01 04:24:07;;;;;;;6.47;3.20;;;;;;;16.28;55.85;100596.94;1703279;82;21600;-46
2022/09/01 04:26:37;;;;;;;5.00;2.33;;;;;;;16.22;56.21;100594.89;1680611;82;21114;-46
2022/09/01 04:29:05;;;;;;;8.53;2.67;;;;;;;16.25;56.02;100598.56;1702457;82;21196;-48
2022/09/01 04:31:34;;;;;;;6.15;2.90;;;;;;;16.28;56.06;100601.73;1695335;82;21115;-46
2022/09/01 04:34:01;;;;;;;5.37;2.65;;;;;;;16.31;56.05;100601.44;1734075;79;21034;-45
2022/09/01 04:36:31;;;;;;;6.55;2.75;;;;;;;16.35;56.07;100602.78;1752797;79;21011;-46
2022/09/01 04:38:59;;;;;;;5.72;2.77;;;;;;;16.38;55.99;100600.32;1703334;82;21140;-46
2022/09/01 04:41:30;;;;;;;5.12;2.33;;;;;;;16.42;56.09;100604.83;1719093;81;21286;-46
2022/09/01 04:44:04;;;;;;;5.37;2.12;;;;;;;16.44;56.17;100601.04;1760969;79;21086;-47
2022/09/01 04:46:34;;;;;;;7.22;2.52;;;;;;;16.44;56.40;100607.67;1750568;79;21402;-46
2022/09/01 04:49:08;;;;;;;6.25;2.80;;;;;;;16.48;56.48;100601.55;1750675;79;21111;-45
2022/09/01 04:51:32;;;;;;;4.70;2.40;;;;;;;16.55;56.48;100598.60;1753707;79;21110;-46
2022/09/01 04:53:59;;;;;;;5.42;2.25;;;;;;;16.65;56.30;100599.33;1756114;79;21235;-47
2022/09/01 04:56:27;;;;;;;7.03;2.90;;;;;;;16.81;56.02;100604.39;1722695;80;21369;-48
2022/09/01 04:58:58;;;;;;;5.95;2.17;;;;;;;16.90;55.74;100598.17;1733410;79;21076;-46
2022/09/01 05:01:26;;;;;;;4.90;2.00;;;;;;;16.98;55.39;100602.20;1757635;79;21138;-46
2022/09/01 05:03:58;;;;;;;4.72;1.90;;;;;;;17.04;55.47;100597.55;1753538;79;20976;-46
2022/09/01 05:06:38;;;;;;;4.85;1.87;;;;;;;17.13;55.53;100598.44;1756364;79;21098;-46
2022/09/01 05:09:04;;;;;;;5.87;2.00;;;;;;;17.21;54.56;100593.13;1763313;79;20955;-45
2022/09/01 05:11:38;;;;;;;6.53;2.10;;;;;;;17.25;54.79;100589.67;1749939;79;21098;-46
2022/09/01 05:14:07;;;;;;;5.12;2.20;;;;;;;17.31;54.79;100592.17;1749114;79;21082;-46
2022/09/01 05:16:34;;;;;;;6.08;2.17;;;;;;;17.33;54.65;100589.70;1752646;79;21145;-46
2022/09/01 05:19:01;;;;;;;8.70;2.20;;;;;;;17.36;54.53;100586.69;1752785;79;21133;-46
2022/09/01 05:21:30;;;;;;;6.65;1.90;;;;;;;17.39;53.63;100585.05;1744267;79;20999;-46
2022/09/01 05:24:00;;;;;;;7.53;2.52;;;;;;;17.39;53.41;100594.86;1700961;82;21087;-46
2022/09/01 05:26:30;;;;;;;4.53;1.92;;;;;;;17.39;53.25;100594.35;1739066;80;21032;-46
2022/09/01 05:29:00;;;;;;;5.70;2.08;;;;;;;17.42;53.44;100598.53;1739916;80;21126;-46
2022/09/01 05:31:33;;;;;;;5.42;2.62;;;;;;;17.42;53.59;100603.84;1741804;80;21776;-47
2022/09/01 05:33:57;;;;;;;5.53;2.58;;;;;;;17.44;53.71;100608.00;1738981;80;21547;-47
2022/09/01 05:36:25;;;;;;;6.30;2.83;;;;;;;17.41;53.68;100605.66;1737358;80;21047;-47
2022/09/01 05:38:55;;;;;;;6.95;3.05;;;;;;;17.39;53.77;100602.33;1707151;82;21560;-47
2022/09/01 05:41:23;;;;;;;8.85;2.67;;;;;;;17.43;53.66;100606.35;1684882;83;21549;-47
2022/09/01 05:43:51;;;;;;;5.37;2.52;;;;;;;17.49;53.65;100603.52;1693563;82;22155;-47
2022/09/01 05:46:20;;;;;;;4.60;2.35;;;;;;;17.55;53.27;100598.90;1743542;81;21640;-47
2022/09/01 05:48:48;;;;;;;5.70;2.42;;;;;;;17.58;53.43;100603.05;1737829;80;21051;-47
2022/09/01 05:51:18;;;;;;;5.33;2.58;;;;;;;17.61;53.12;100600.88;1700964;82;21126;-47
2022/09/01 05:53:46;;;;;;;5.28;2.83;;;;;;;17.67;53.13;100599.41;1741015;80;21086;-47
2022/09/01 05:56:13;;;;;;;7.90;2.90;;;;;;;17.73;52.44;100599.25;1738301;80;21120;-47
2022/09/01 05:58:42;;;;;;;5.53;2.17;;;;;;;17.77;52.22;100599.23;1745692;80;21090;-47
2022/09/01 06:01:12;;;;;;;7.37;3.25;;;;;;;17.77;52.27;100599.23;1738951;80;21117;-47
2022/09/01 06:03:40;;;;;;;6.47;2.65;;;;;;;17.78;52.43;100597.74;1682251;83;21148;-48
2022/09/01 06:06:08;;;;;;;6.22;2.80;;;;;;;17.83;52.92;100594.59;1670219;83;21142;-47
2022/09/01 06:08:35;;;;;;;5.75;2.35;;;;;;;17.89;51.83;100593.98;1702062;82;22038;-47
2022/09/01 06:11:11;;;;;;;5.25;2.50;;;;;;;17.94;51.43;100591.65;1698635;82;21071;-47
2022/09/01 06:13:34;;;;;;;6.72;2.83;;;;;;;17.97;51.13;100590.47;1679534;83;21153;-47
2022/09/01 06:16:01;;;;;;;5.85;2.70;;;;;;;18.00;51.95;100589.66;1708795;82;21030;-47
2022/09/01 06:18:28;;;;;;;7.67;3.62;;;;;;;18.10;52.17;100585.98;1705859;82;21125;-47
2022/09/01 06:20:57;;;;;;;8.73;4.17;;;;;;;18.19;51.79;100587.66;1740213;80;21250;-47
2022/09/01 06:23:24;;;;;;;8.18;5.62;;;;;;;18.27;52.07;100595.62;1726387;79;21084;-47
2022/09/01 06:25:52;;;;;;;11.97;7.37;;;;;;;18.34;51.17;100595.30;1755178;79;21118;-47
2022/09/01 06:28:22;;;;;;;6.25;3.08;;;;;;;18.44;51.46;100598.27;1757445;79;21066;-47
2022/09/01 06:30:49;;;;;;;8.28;5.62;;;;;;;18.47;50.70;100597.42;1761165;79;21038;-46
2022/09/01 06:33:18;;;;;;;5.90;2.98;;;;;;;18.50;50.72;100594.94;1758548;79;21234;-47
2022/09/01 06:35:46;;;;;;;7.70;3.65;;;;;;;18.57;49.51;100597.24;1750158;79;21570;-47
2022/09/01 06:38:18;;;;;;;6.90;3.40;;;;;;;18.59;49.26;100597.90;1747529;80;21039;-46
2022/09/01 06:40:45;;;;;;;7.25;2.50;;;;;;;18.59;48.78;100592.56;1742904;79;21003;-51
2022/09/01 06:43:14;;;;;;;5.00;2.10;;;;;;;18.57;48.90;100599.91;1745799;79;21252;-47
2022/09/01 06:45:48;;;;;;;5.87;2.70;;;;;;;18.57;49.56;100599.91;1749285;79;21118;-46
2022/09/01 06:48:16;;;;;;;6.12;2.58;;;;;;;18.59;49.80;100604.56;1746679;79;21051;-46
2022/09/01 06:50:44;;;;;;;6.40;2.80;;;;;;;18.61;50.02;100601.25;1752762;79;21067;-47
2022/09/01 06:53:15;;;;;;;5.60;2.70;;;;;;;18.67;50.06;100607.21;1754102;79;21050;-46
2022/09/01 06:55:42;;;;;;;5.20;2.65;;;;;;;18.72;49.78;100614.70;1750234;79;21083;-46
2022/09/01 06:58:10;;;;;;;6.55;3.10;;;;;;;18.74;49.68;100609.55;1755530;79;21431;-47
2022/09/01 07:00:41;;;;;;;7.55;3.00;;;;;;;18.77;49.50;100609.69;1749256;79;21111;-47
2022/09/01 07:03:10;;;;;;;7.45;2.62;;;;;;;18.82;49.55;100614.52;1748521;79;21201;-46
2022/09/01 07:05:46;;;;;;;9.63;2.92;;;;;;;18.87;49.66;100621.02;1751944;79;21114;-46
2022/09/01 07:08:18;;;;;;;7.17;2.80;;;;;;;18.98;49.61;100617.17;1751740;79;21023;-46
2022/09/01 07:10:49;;;;;;;6.15;2.85;;;;;;;19.10;49.54;100617.11;1741216;79;21254;-46
2022/09/01 07:13:24;;;;;;;6.15;2.55;;;;;;;19.25;49.29;100615.88;1685573;83;21079;-47
2022/09/01 07:15:53;;;;;;;7.60;3.60;;;;;;;19.40;49.19;100617.31;1756133;79;21164;-47
2022/09/01 07:18:24;;;;;;;6.37;3.47;;;;;;;19.53;49.44;100614.05;1752122;79;21050;-47
2022/09/01 07:20:52;;;;;;;6.22;4.10;;;;;;;19.68;49.88;100616.80;1750396;79;21023;-48
2022/09/01 07:23:19;;;;;;;6.47;4.03;;;;;;;19.80;49.07;100618.11;1750744;79;21224;-47
2022/09/01 07:25:48;;;;;;;9.75;4.45;;;;;;;19.84;48.87;100622.59;1751086;79;21445;-47
2022/09/01 07:28:20;;;;;;;7.40;4.42;;;;;;;19.83;48.57;100619.06;1759751;79;21094;-47
2022/09/01 07:30:49;;;;;;;5.65;2.87;;;;;;;19.86;48.92;100614.70;1752196;79;21119;-47
2022/09/01 07:33:19;;;;;;;5.87;3.30;;;;;;;19.89;47.92;100612.20;1755605;79;21036;-47
2022/09/01 07:35:46;;;;;;;8.23;4.33;;;;;;;19.91;46.46;100609.35;1755116;79;21229;-47
2022/09/01 07:38:13;;;;;;;7.53;3.67;;;;;;;19.96;46.54;100618.48;1757435;79;21030;-52
2022/09/01 07:40:41;;;;;;;7.20;3.33;;;;;;;20.03;46.87;100608.73;1751326;79;21138;-47
2022/09/01 07:43:22;;;;;;;6.15;3.00;;;;;;;20.11;46.28;100607.84;1758748;79;21049;-47
2022/09/01 07:46:03;;;;;;;5.40;2.33;;;;;;;20.19;45.17;100609.60;1689724;83;21079;-47
2022/09/01 07:48:30;;;;;;;5.45;2.02;;;;;;;20.23;41.39;100613.59;1742881;80;21256;-47
2022/09/01 07:50:56;;;;;;;7.95;2.60;;;;;;;20.23;42.19;100607.73;1759549;79;21577;-48
2022/09/01 07:53:30;;;;;;;6.55;2.30;;;;;;;20.25;42.53;100606.22;1764348;79;21540;-47
2022/09/01 07:56:02;;;;;;;6.78;2.62;;;;;;;20.26;42.99;100600.36;1768203;79;21133;-48
2022/09/01 07:58:30;;;;;;;5.50;2.02;;;;;;;20.27;43.10;100603.37;1697615;82;21433;-47
2022/09/01 08:01:01;;;;;;;6.12;2.12;;;;;;;20.30;42.96;100602.49;1756887;79;21644;-47
2022/09/01 08:03:29;;;;;;;5.50;2.00;;;;;;;20.30;42.39;100601.67;1762649;79;21159;-47
2022/09/01 08:05:59;;;;;;;5.05;1.70;;;;;;;20.31;41.23;100600.64;1752507;79;21063;-47
2022/09/01 08:08:28;;;;;;;6.42;2.45;;;;;;;20.30;40.77;100595.00;1749617;79;21498;-47
2022/09/01 08:10:54;;;;;;;6.67;2.17;;;;;;;20.34;41.35;100596.28;1759471;79;21056;-47
2022/09/01 08:13:21;;;;;;;5.03;1.50;;;;;;;20.36;40.49;100591.09;1762575;79;21131;-47
2022/09/01 08:15:47;;;;;;;4.80;1.82;;;;;;;20.39;40.17;100595.22;1752851;79;21078;-47
2022/09/01 08:18:14;;;;;;;5.47;1.72;;;;;;;20.39;40.68;100592.55;1750522;79;21055;-47
2022/09/01 08:20:44;;;;;;;6.70;1.87;;;;;;;20.40;39.79;100591.55;1758627;79;21091;-50
2022/09/01 08:23:31;;;;;;;5.10;2.15;;;;;;;20.38;40.20;100593.06;1710281;82;21036;-47
2022/09/01 08:25:58;;;;;;;5.00;1.82;;;;;;;20.38;40.13;100592.25;1719384;82;21212;-48
2022/09/01 08:28:25;;;;;;;4.60;1.98;;;;;;;20.43;40.67;100589.86;1733748;82;21019;-47
2022/09/01 08:30:51;;;;;;;6.12;2.05;;;;;;;20.49;39.05;100589.63;1730475;80;21131;-48
2022/09/01 08:33:19;;;;;;;4.85;1.70;;;;;;;20.53;38.70;100586.41;1714127;81;21085;-47
2022/09/01 08:35:47;;;;;;;5.42;2.12;;;;;;;20.58;39.33;100588.02;1704465;81;21726;-47
2022/09/01 08:38:15;;;;;;;4.05;1.80;;;;;;;20.64;38.92;100586.99;1701132;81;21136;-47
2022/09/01 08:40:44;;;;;;;6.08;2.10;;;;;;;20.70;38.67;100582.25;1713470;81;21578;-47
2022/09/01 08:43:19;;;;;;;5.08;2.12;;;;;;;20.76;39.00;100581.50;1704638;81;21042;-47
2022/09/01 08:45:53;;;;;;;5.78;2.55;;;;;;;20.79;38.00;100578.45;1703938;81;21088;-48
2022/09/01 08:48:38;;;;;;;6.22;2.75;;;;;;;20.86;38.62;100583.38;1701590;81;21142;-49
2022/09/01 08:51:42;;;;;;;5.47;2.33;;;;;;;20.95;38.47;100576.93;1703999;81;21790;-47
2022/09/01 08:54:20;;;;;;;5.40;2.17;;;;;;;21.03;37.51;100569.33;1709269;81;21086;-47
2022/09/01 08:56:49;;;;;;;6.20;2.65;;;;;;;21.05;38.19;100581.18;1710791;81;21032;-49
2022/09/01 08:59:17;;;;;;;7.15;2.20;;;;;;;21.05;37.54;100573.16;1711211;81;21076;-47
2022/09/01 09:02:06;;;;;;;5.15;2.58;;;;;;;20.99;37.95;100569.88;1704945;81;21073;-47
2022/09/01 09:04:58;;;;;;;6.03;2.47;;;;;;;20.93;37.79;100572.28;1735930;80;21202;-46
2022/09/01 09:07:50;;;;;;;9.53;3.15;;;;;;;20.83;36.91;100570.89;1708909;81;21651;-45
2022/09/01 09:10:22;;;;;;;5.50;3.08;;;;;;;20.76;36.63;100572.99;1712642;81;21682;-47
2022/09/01 09:13:04;;;;;;;5.72;2.75;;;;;;;20.72;36.70;100579.70;1735554;80;21544;-47
2022/09/01 09:15:49;;;;;;;5.95;2.40;;;;;;;20.74;37.59;100576.84;1736663;80;21081;-47
2022/09/01 09:18:40;;;;;;;7.33;3.05;;;;;;;20.83;37.74;100576.23;1730296;80;21151;-47
2022/09/01 09:21:26;;;;;;;6.25;3.55;;;;;;;20.89;37.13;100572.83;1713486;81;21568;-47
2022/09/01 09:24:01;;;;;;;6.70;3.55;;;;;;;20.92;35.82;100566.60;1727312;80;21517;-47
2022/09/01 09:26:30;;;;;;;9.70;4.17;;;;;;;20.88;36.87;100569.83;1729475;81;21011;-47
2022/09/01 09:28:57;;;;;;;8.73;4.62;;;;;;;20.81;37.38;100569.73;1762975;79;21651;-47
2022/09/01 09:31:31;;;;;;;7.62;4.08;;;;;;;20.78;38.11;100574.14;1761077;79;21129;-47
2022/09/01 09:33:58;;;;;;;7.83;3.90;;;;;;;20.83;37.51;100570.89;1757812;79;21054;-48
2022/09/01 09:36:34;;;;;;;8.05;3.90;;;;;;;20.93;37.17;100574.95;1772506;79;21305;-46
2022/09/01 09:39:16;;;;;;;6.08;3.25;;;;;;;21.04;36.60;100576.83;1758431;79;21510;-46
2022/09/01 09:42:08;;;;;;;8.75;4.10;;;;;;;21.12;36.23;100567.37;1765587;79;21604;-46
2022/09/01 09:44:33;;;;;;;9.25;4.90;;;;;;;21.23;36.46;100562.87;1760854;79;21208;-46
2022/09/01 09:47:00;;;;;;;8.38;4.92;;;;;;;21.32;36.25;100555.55;1763442;79;21454;-46
2022/09/01 09:49:30;;;;;;;8.55;5.60;;;;;;;21.36;36.21;100570.72;1759483;79;21122;-48
2022/09/01 09:52:11;;;;;;;9.13;5.70;;;;;;;21.38;36.02;100563.33;1767836;79;21049;-47
2022/09/01 09:54:40;;;;;;;10.50;6.33;;;;;;;21.42;35.86;100566.78;1703612;82;21581;-47
2022/09/01 09:57:15;;;;;;;11.12;6.95;;;;;;;21.46;35.80;100560.02;1765113;79;21079;-47
2022/09/01 10:00:00;;;;;;;17.55;9.28;;;;;;;21.46;35.85;100560.53;1758259;79;21081;-47
2022/09/01 10:02:38;;;;;;;17.62;9.28;;;;;;;21.45;35.93;100561.05;1766275;79;21056;-47
2022/09/01 10:05:36;;;;;;;17.12;11.00;;;;;;;21.40;35.31;100568.82;1765083;79;21103;-46
2022/09/01 10:08:07;;;;;;;18.17;13.03;;;;;;;21.28;35.09;100564.47;1757675;79;21027;-47
2022/09/01 10:10:46;;;;;;;16.80;12.15;;;;;;;21.18;35.07;100570.61;1738234;80;21133;-47
2022/09/01 10:13:18;;;;;;;30.82;16.05;;;;;;;21.13;35.67;100567.18;1762661;79;21077;-47
2022/09/01 10:15:57;;;;;;;25.68;18.07;;;;;;;21.12;36.15;100567.37;1761790;79;21047;-48
2022/09/01 10:18:30;;;;;;;30.90;22.45;;;;;;;21.14;36.63;100570.16;1760386;79;21055;-47
2022/09/01 10:21:12;;;;;;;36.20;28.10;;;;;;;21.18;36.38;100567.11;1762269;79;21007;-47
2022/09/01 10:23:40;;;;;;;45.12;33.42;;;;;;;21.24;36.33;100575.73;1750297;79;21043;-47
2022/09/01 10:26:23;;;;;;;52.35;35.43;;;;;;;21.28;35.36;100565.81;1747322;79;21133;-47
2022/09/01 10:29:17;;;;;;;53.28;36.93;;;;;;;21.38;35.62;100564.66;1750527;80;21588;-46
2022/09/01 10:31:44;;;;;;;54.58;40.03;;;;;;;21.41;36.62;100565.11;1748124;79;21082;-47
2022/09/01 10:34:16;;;;;;;51.65;39.18;;;;;;;21.38;35.16;100570.83;1753370;79;21015;-47
2022/09/01 10:36:44;;;;;;;52.58;39.15;;;;;;;21.33;36.12;100562.06;1753879;79;21745;-47
2022/09/01 10:39:12;;;;;;;48.38;34.55;;;;;;;21.31;36.39;100564.07;1769012;79;21074;-47
2022/09/01 10:41:50;;;;;;;41.85;31.05;;;;;;;21.41;36.65;100569.13;1766111;79;21062;-47
2022/09/01 10:44:32;;;;;;;39.30;31.02;;;;;;;21.50;34.38;100561.83;1757260;79;21581;-47
2022/09/01 10:47:25;;;;;;;40.63;32.33;;;;;;;21.53;34.56;100550.74;1759286;79;21047;-47
2022/09/01 10:49:57;;;;;;;40.45;28.83;;;;;;;21.58;34.93;100548.31;1754273;79;21231;-47
2022/09/01 10:52:47;;;;;;;30.10;22.75;;;;;;;21.71;35.35;100554.32;1757352;79;21043;-47
2022/09/01 10:55:30;;;;;;;29.65;21.80;;;;;;;21.80;34.43;100547.80;1762278;79;21062;-47
2022/09/01 10:58:25;;;;;;;38.75;29.57;;;;;;;21.91;34.49;100551.82;1750497;79;21047;-46
2022/09/01 11:00:52;;;;;;;37.28;29.10;;;;;;;21.98;35.14;100551.36;1750540;79;21087;-46
2022/09/01 11:03:32;;;;;;;34.83;26.12;;;;;;;21.96;35.01;100546.70;1750314;79;21127;-46
2022/09/01 11:06:06;;;;;;;28.42;20.15;;;;;;;21.91;35.51;100546.98;1755232;79;21420;-45
2022/09/01 11:08:46;;;;;;;24.85;18.52;;;;;;;21.84;35.28;100554.96;1744841;79;21485;-46
2022/09/01 11:11:30;;;;;;;23.75;16.90;;;;;;;21.80;36.32;100544.30;1760289;79;21122;-47
2022/09/01 11:13:58;;;;;;;15.40;10.82;;;;;;;21.84;36.39;100538.89;1729375;80;21067;-47
2022/09/01 11:16:38;;;;;;;14.58;8.78;;;;;;;21.97;34.85;100528.78;1752955;79;21226;-49
2022/09/01 11:19:25;;;;;;;12.60;9.53;;;;;;;22.10;34.88;100527.54;1754906;79;21379;-47
2022/09/01 11:22:27;;;;;;;15.60;10.05;;;;;;;22.23;35.32;100526.81;1750524;79;21064;-47
2022/09/01 11:25:43;;;;;;;10.72;7.47;;;;;;;22.37;34.62;100529.09;1756804;79;21153;-47
2022/09/01 11:28:24;;;;;;;19.50;8.15;;;;;;;22.39;33.92;100527.88;1758859;79;21072;-47
2022/09/01 11:31:07;;;;;;;9.98;5.95;;;;;;;22.31;34.72;100523.16;1751314;79;21028;-47
2022/09/01 11:34:11;;;;;;;9.63;6.03;;;;;;;22.27;33.79;100521.36;1752573;79;21124;-47
2022/09/01 11:36:53;;;;;;;8.00;3.80;;;;;;;22.22;34.51;100519.78;1754338;79;21015;-47
2022/09/01 11:39:31;;;;;;;4.67;2.05;;;;;;;22.27;35.47;100517.34;1749736;79;21064;-47
2022/09/01 11:42:09;;;;;;;3.70;1.22;;;;;;;22.35;34.59;100523.11;1736446;79;21181;-47
2022/09/01 11:44:57;;;;;;;4.45;1.37;;;;;;;22.42;33.74;100529.33;1752967;79;21118;-47
2022/09/01 11:47:28;;;;;;;4.10;1.57;;;;;;;22.47;32.46;100528.22;1755123;79;21079;-46
2022/09/01 11:50:01;;;;;;;5.90;1.40;;;;;;;22.48;33.08;100518.31;1757391;79;21067;-47
2022/09/01 11:52:30;;;;;;;6.12;1.70;;;;;;;22.47;32.62;100515.34;1749875;79;21566;-46
2022/09/01 11:54:57;;;;;;;6.00;1.87;;;;;;;22.48;34.08;100512.95;1749068;79;21548;-46